Pacific Navigator — PENDING — position and weather

sailwx.info

Track history (hours):
 
Tides and Currents Weather Stations Pressure Air Temp Water Temp Dewpoint Dewpoint Depression Visibility Wind Speed Wind Dir Waves Ship Positions

Pacific Navigator

Last reported at 2017-Oct-17 17:52 UTC. Time now 2017-Oct-22 13:32 UTC.
Position N 48°26' W 123°23'.

Length 35 m.

Type: Pleasure craft. MMSI: 123456788.

Date/timePositionNaut miles runAvg speedWind from/ knotsBaromVisibWave heightAir tempDewpointWater temp
2017-Oct-17 17:52N 48°26' W 123°23'0 0.0
2017-Oct-17 17:30N 48°26' W 123°23'0 0.2
2017-Oct-17 17:01N 48°26' W 123°22'1 2.3
2017-Oct-17 16:31N 48°25' W 123°23'0 0.0
2017-Oct-17 16:01N 48°25' W 123°23'0 0.0
2017-Oct-17 15:30N 48°25' W 123°23'0 0.0
2017-Oct-17 15:01N 48°25' W 123°23'0 0.0
2017-Oct-17 14:31N 48°25' W 123°23'0 0.0
2017-Oct-17 14:01N 48°25' W 123°23'0 0.0
2017-Oct-17 13:31N 48°25' W 123°23'0 0.0
2017-Oct-17 13:01N 48°25' W 123°23'0 0.0
2017-Oct-17 12:30N 48°25' W 123°23'0 0.0
2017-Oct-17 12:01N 48°25' W 123°23'0 0.0
2017-Oct-17 11:30N 48°25' W 123°23'0 0.0
2017-Oct-17 11:01N 48°25' W 123°23'0 0.0
2017-Oct-17 10:31N 48°25' W 123°23'0 0.0
2017-Oct-17 10:01N 48°25' W 123°23'0 0.0
2017-Oct-17 09:30N 48°25' W 123°23'0 0.0
2017-Oct-17 09:00N 48°25' W 123°23'0 0.0
2017-Oct-17 08:30N 48°25' W 123°23'0 0.0
2017-Oct-17 08:00N 48°25' W 123°23'0 0.0
2017-Oct-17 07:30N 48°25' W 123°23'0 0.1
2017-Oct-17 07:00N 48°25' W 123°23'0 0.1
2017-Oct-17 06:30N 48°25' W 123°23'0 0.0
2017-Oct-17 06:00N 48°25' W 123°23'0 0.1
2017-Oct-17 05:30N 48°25' W 123°23'0 0.1
2017-Oct-17 05:00N 48°25' W 123°23'0 0.0
2017-Oct-17 04:30N 48°25' W 123°23'0 0.0
2017-Oct-17 04:00N 48°25' W 123°23'0 0.0
2017-Oct-17 03:30N 48°25' W 123°23'0 0.0
2017-Oct-17 03:00N 48°25' W 123°23'0 0.0
2017-Oct-17 02:30N 48°25' W 123°23'0 0.0
2017-Oct-17 02:00N 48°25' W 123°23'0 0.0
2017-Oct-17 01:30N 48°25' W 123°23'0 0.0
2017-Oct-17 01:00N 48°25' W 123°23'0 0.0
2017-Oct-17 00:30N 48°25' W 123°23'0 0.0
2017-Oct-17 00:00N 48°25' W 123°23'3 6.5
2017-Oct-16 23:31N 48°25' W 123°18'918.9
2017-Oct-16 23:00N 48°34' W 123°21'1117.2
2017-Oct-16 22:21N 48°43' W 123°31'719.1
2017-Oct-16 22:00N 48°49' W 123°34'1020.8
2017-Oct-16 21:31N 48°59' W 123°37'1019.8
2017-Oct-16 21:00N 49°05' W 123°24'917.0
2017-Oct-16 20:29N 49°07' W 123°11'0 0.0
2017-Oct-16 19:59N 49°07' W 123°11'0 0.0
2017-Oct-16 19:30N 49°07' W 123°11'0 0.0
2017-Oct-16 19:00N 49°07' W 123°11'0 0.0
2017-Oct-16 18:29N 49°07' W 123°11'0 0.0
2017-Oct-16 17:59N 49°07' W 123°11'0 0.0
2017-Oct-16 17:30N 49°07' W 123°11'0 0.0
2017-Oct-16 16:58N 49°07' W 123°11'0 0.0
2017-Oct-16 16:30N 49°07' W 123°11'0 0.0
2017-Oct-16 16:00N 49°07' W 123°11'0 0.0
2017-Oct-16 15:30N 49°07' W 123°11'0 0.0
2017-Oct-16 14:58N 49°07' W 123°11'0 0.0
2017-Oct-16 14:30N 49°07' W 123°11'0 0.0
2017-Oct-16 13:30N 49°07' W 123°11'0 0.0
2017-Oct-16 13:00N 49°07' W 123°11'0 0.0
2017-Oct-16 12:30N 49°07' W 123°11'0 0.0
2017-Oct-16 12:00N 49°07' W 123°11'0 0.0
2017-Oct-16 11:30N 49°07' W 123°11'4 7.8
2017-Oct-16 11:01N 49°07' W 123°17'3 5.4
2017-Oct-16 10:30N 49°08' W 123°13'1 2.6
2017-Oct-16 10:00N 49°07' W 123°11'0 0.0
2017-Oct-16 09:30N 49°07' W 123°11'0 0.0
2017-Oct-16 09:00N 49°07' W 123°11'0 0.0
2017-Oct-16 08:30N 49°07' W 123°11'0 0.0
2017-Oct-16 08:00N 49°07' W 123°11'5 9.3
2017-Oct-16 07:30N 49°06' W 123°18'2 3.7
2017-Oct-16 07:00N 49°07' W 123°16'3 5.8
2017-Oct-16 06:30N 49°07' W 123°11'0 0.1
2017-Oct-16 06:00N 49°07' W 123°11'0 0.0
2017-Oct-16 05:30N 49°07' W 123°11'0 0.0
2017-Oct-16 05:00N 49°07' W 123°11'0 0.0
2017-Oct-16 04:30N 49°07' W 123°11'0 0.0
2017-Oct-16 04:00N 49°07' W 123°11'0 0.0
2017-Oct-16 03:31N 49°07' W 123°11'0 0.1
2017-Oct-16 03:00N 49°07' W 123°11'611.5
2017-Oct-16 02:30N 49°05' W 123°19'3 6.8
2017-Oct-16 02:00N 49°07' W 123°15'3 5.3
2017-Oct-16 01:30N 49°07' W 123°11'612.0
2017-Oct-16 01:00N 49°03' W 123°18'612.1
2017-Oct-16 00:30N 49°07' W 123°11'4 8.7
2017-Oct-16 00:00N 49°06' W 123°18'4 8.7
2017-Oct-15 23:30N 49°07' W 123°11'0 0.0
2017-Oct-15 23:00N 49°07' W 123°11'0 0.0
2017-Oct-15 22:30N 49°07' W 123°11'0 0.0
2017-Oct-15 21:59N 49°07' W 123°11'0 0.0
2017-Oct-15 21:30N 49°07' W 123°11'0 0.0
2017-Oct-15 21:00N 49°07' W 123°11'0 0.0
2017-Oct-15 20:30N 49°07' W 123°11'0 0.0
2017-Oct-15 20:00N 49°07' W 123°11'0 0.0
2017-Oct-15 19:29N 49°07' W 123°11'0 0.5
2017-Oct-15 19:00N 49°07' W 123°12'713.8
2017-Oct-15 18:30N 49°03' W 123°19'713.0
2017-Oct-15 18:00N 49°08' W 123°12'1 1.3
2017-Oct-15 17:27N 49°07' W 123°11'0 0.0
2017-Oct-15 17:00N 49°07' W 123°11'0 0.0
2017-Oct-15 16:30N 49°07' W 123°11'0 0.0
2017-Oct-15 16:00N 49°07' W 123°11'0 0.0
2017-Oct-15 15:30N 49°07' W 123°11'0 0.0
2017-Oct-15 15:00N 49°07' W 123°11'0 0.0
2017-Oct-15 14:00N 49°07' W 123°11'0 0.0
2017-Oct-15 13:30N 49°07' W 123°11'0 0.0
2017-Oct-15 13:00N 49°07' W 123°11'0 0.0
2017-Oct-15 12:30N 49°07' W 123°11'0 0.0
2017-Oct-15 12:00N 49°07' W 123°11'0 0.0
2017-Oct-15 11:30N 49°07' W 123°11'0 0.0
2017-Oct-15 11:00N 49°07' W 123°11'510.8
2017-Oct-15 10:30N 49°06' W 123°19'0 0.4
2017-Oct-15 10:00N 49°06' W 123°18'1 2.1
2017-Oct-15 09:31N 49°07' W 123°17'0 0.9
2017-Oct-15 09:00N 49°07' W 123°17'4 7.2
2017-Oct-15 08:30N 49°07' W 123°11'0 0.0
2017-Oct-15 08:00N 49°07' W 123°11'0 0.0
2017-Oct-15 07:30N 49°07' W 123°11'0 0.0
2017-Oct-15 07:00N 49°07' W 123°11'0 0.0
2017-Oct-15 06:30N 49°07' W 123°11'0 0.0
2017-Oct-15 06:00N 49°07' W 123°11'0 0.0
2017-Oct-15 05:31N 49°07' W 123°11'0 0.0
2017-Oct-15 05:00N 49°07' W 123°11'0 0.0
2017-Oct-15 04:30N 49°07' W 123°11'0 0.0
2017-Oct-15 04:00N 49°07' W 123°11'0 0.0
2017-Oct-15 03:30N 49°07' W 123°11'0 0.0
2017-Oct-15 03:00N 49°07' W 123°11'0 0.0
2017-Oct-15 02:30N 49°07' W 123°11'0 0.0
2017-Oct-15 02:00N 49°07' W 123°11'3 5.6
2017-Oct-15 01:30N 49°07' W 123°15'2 3.1
2017-Oct-15 01:00N 49°08' W 123°13'5 9.2
2017-Oct-15 00:30N 49°06' W 123°19'611.1
2017-Oct-15 00:00N 49°07' W 123°11'0 0.0
2017-Oct-14 23:30N 49°07' W 123°11'0 0.0
2017-Oct-14 23:00N 49°07' W 123°11'0 0.0
2017-Oct-14 22:30N 49°07' W 123°11'0 0.0
2017-Oct-14 22:00N 49°07' W 123°11'0 0.0
2017-Oct-14 21:30N 49°07' W 123°11'0 0.0
2017-Oct-14 21:00N 49°07' W 123°11'0 0.0
2017-Oct-14 20:29N 49°07' W 123°11'0 0.0
2017-Oct-14 20:00N 49°07' W 123°11'0 0.0
2017-Oct-14 19:30N 49°07' W 123°11'0 0.0
2017-Oct-14 19:00N 49°07' W 123°11'0 0.0
2017-Oct-14 18:30N 49°07' W 123°11'0 0.0
2017-Oct-14 18:00N 49°07' W 123°11'0 0.0
2017-Oct-14 17:30N 49°07' W 123°11'0 0.0
2017-Oct-14 17:00N 49°07' W 123°11'0 0.0
2017-Oct-14 16:30N 49°07' W 123°11'0 0.0
2017-Oct-14 16:00N 49°07' W 123°11'0 0.0
2017-Oct-14 15:30N 49°07' W 123°11'0 0.0
2017-Oct-14 15:00N 49°07' W 123°11'0 0.0
2017-Oct-14 14:30N 49°07' W 123°11'0 0.0
2017-Oct-14 14:00N 49°07' W 123°11'0 0.0
2017-Oct-14 13:30N 49°07' W 123°11'0 0.0
2017-Oct-14 13:00N 49°07' W 123°11'0 0.0
2017-Oct-14 12:30N 49°07' W 123°11'4 8.4
2017-Oct-14 12:00N 49°07' W 123°17'1 2.3
2017-Oct-14 11:30N 49°06' W 123°19'510.3
2017-Oct-14 11:00N 49°07' W 123°11'0 0.0
2017-Oct-14 10:28N 49°07' W 123°11'0 0.0
2017-Oct-14 09:58N 49°07' W 123°11'0 0.0
2017-Oct-14 09:24N 49°07' W 123°11'0 0.0
2017-Oct-14 08:58N 49°07' W 123°11'0 0.0
2017-Oct-14 08:30N 49°07' W 123°11'0 0.0
2017-Oct-14 08:01N 49°07' W 123°11'0 0.0
2017-Oct-14 07:30N 49°07' W 123°11'0 0.0
2017-Oct-14 07:01N 49°07' W 123°11'0 0.0
2017-Oct-14 06:31N 49°07' W 123°11'2 4.1
2017-Oct-14 06:00N 49°08' W 123°14'1 2.4
2017-Oct-14 05:30N 49°07' W 123°16'3 6.1
2017-Oct-14 05:00N 49°07' W 123°11'0 0.0
2017-Oct-14 04:29N 49°07' W 123°11'0 0.0
2017-Oct-14 04:00N 49°07' W 123°11'0 0.0
2017-Oct-14 03:30N 49°07' W 123°11'0 0.0
2017-Oct-14 02:59N 49°07' W 123°11'0 0.0
2017-Oct-14 02:27N 49°07' W 123°11'0 0.0
2017-Oct-14 02:00N 49°07' W 123°11'0 0.0
2017-Oct-14 01:29N 49°07' W 123°11'0 0.0
2017-Oct-14 00:47N 49°07' W 123°11'0 0.0
2017-Oct-13 23:19N 49°07' W 123°11'0 0.0
2017-Oct-13 23:00N 49°07' W 123°11'0 0.0
2017-Oct-13 22:30N 49°07' W 123°11'0 0.0
2017-Oct-13 21:57N 49°07' W 123°11'0 0.0
2017-Oct-13 21:30N 49°07' W 123°11'0 0.0
2017-Oct-13 21:00N 49°07' W 123°11'0 0.0
2017-Oct-13 20:30N 49°07' W 123°11'0 0.0
2017-Oct-13 20:00N 49°07' W 123°11'0 0.0
2017-Oct-13 19:30N 49°07' W 123°11'0 0.0
2017-Oct-13 18:59N 49°07' W 123°11'3 5.5
2017-Oct-13 18:30N 49°07' W 123°15'0 0.6
2017-Oct-13 18:00N 49°08' W 123°15'2 4.4
2017-Oct-13 17:27N 49°07' W 123°11'0 0.0
2017-Oct-13 17:00N 49°07' W 123°11'0 0.0
2017-Oct-13 16:28N 49°07' W 123°11'0 0.0
2017-Oct-13 15:56N 49°07' W 123°11'0 0.0
2017-Oct-13 15:30N 49°07' W 123°11'0 0.0
2017-Oct-13 15:00N 49°07' W 123°11'0 0.0
2017-Oct-13 14:30N 49°07' W 123°11'0 0.0
2017-Oct-13 13:52N 49°07' W 123°11'0 0.0
2017-Oct-13 13:24N 49°07' W 123°11'0 0.0
2017-Oct-13 12:50N 49°07' W 123°11'0 0.0
2017-Oct-13 12:28N 49°07' W 123°11'0 0.0
2017-Oct-13 11:56N 49°07' W 123°11'3 6.7
2017-Oct-13 11:30N 49°07' W 123°16'5 9.1
2017-Oct-13 11:00N 49°03' W 123°19'7 5.8
2017-Oct-13 09:53N 49°07' W 123°11'0 0.0
2017-Oct-13 09:22N 49°07' W 123°11'2 4.8
2017-Oct-13 09:00N 49°08' W 123°14'611.4
2017-Oct-13 08:31N 49°03' W 123°18'612.8
2017-Oct-13 08:00N 49°07' W 123°11'0 0.0
2017-Oct-13 07:15N 49°07' W 123°11'0 0.0
2017-Oct-13 06:59N 49°07' W 123°11'0 0.0
2017-Oct-13 06:30N 49°07' W 123°11'0 0.0
2017-Oct-13 06:00N 49°07' W 123°11'0 0.0
2017-Oct-13 05:28N 49°07' W 123°11'0 0.0
2017-Oct-13 04:55N 49°07' W 123°11'0 0.0
2017-Oct-13 04:30N 49°07' W 123°11'0 0.0
2017-Oct-13 04:00N 49°07' W 123°11'0 0.0
2017-Oct-13 03:30N 49°07' W 123°11'0 0.0
2017-Oct-13 02:59N 49°07' W 123°11'0 0.1
2017-Oct-13 02:27N 49°07' W 123°11'0 0.1
2017-Oct-13 02:00N 49°07' W 123°11'0 0.0
2017-Oct-13 01:29N 49°07' W 123°11'0 0.0
2017-Oct-13 00:59N 49°07' W 123°11'0 0.0
2017-Oct-13 00:22N 49°07' W 123°11'0 0.0
2017-Oct-13 00:00N 49°07' W 123°11'0 0.0
2017-Oct-12 23:30N 49°07' W 123°11'0 0.0
2017-Oct-12 23:00N 49°07' W 123°11'0 0.5
2017-Oct-12 22:30N 49°07' W 123°12'4 7.1
2017-Oct-12 22:00N 49°07' W 123°17'2 4.8
2017-Oct-12 21:30N 49°08' W 123°14'4 7.8
2017-Oct-12 21:00N 49°06' W 123°19'3 5.2
2017-Oct-12 20:31N 49°04' W 123°20'713.2
2017-Oct-12 20:00N 49°07' W 123°11'0 0.0
2017-Oct-12 19:30N 49°07' W 123°11'0 0.0
2017-Oct-12 19:00N 49°07' W 123°11'0 0.0
2017-Oct-12 18:29N 49°07' W 123°11'0 0.0
2017-Oct-12 17:59N 49°07' W 123°11'0 0.0
2017-Oct-12 17:26N 49°07' W 123°11'0 0.0
2017-Oct-12 17:00N 49°07' W 123°11'0 0.0
2017-Oct-12 16:30N 49°07' W 123°11'0 0.0
2017-Oct-12 16:00N 49°07' W 123°11'0 0.0
2017-Oct-12 15:30N 49°07' W 123°11'0 0.0
2017-Oct-12 14:59N 49°07' W 123°11'0 0.0
2017-Oct-12 14:26N 49°07' W 123°11'0 0.0
2017-Oct-12 13:59N 49°07' W 123°11'0 0.0
2017-Oct-12 13:30N 49°07' W 123°11'0 0.0
2017-Oct-12 12:52N 49°07' W 123°11'0 0.0
2017-Oct-12 12:30N 49°07' W 123°11'0 0.0
2017-Oct-12 11:54N 49°07' W 123°11'0 0.0
2017-Oct-12 11:29N 49°07' W 123°11'0 0.0
2017-Oct-12 10:57N 49°07' W 123°11'0 0.1
2017-Oct-12 10:29N 49°07' W 123°11'0 0.1
2017-Oct-12 10:00N 49°07' W 123°11'0 0.0
2017-Oct-12 09:30N 49°07' W 123°11'0 0.0
2017-Oct-12 09:00N 49°07' W 123°11'0 0.0
2017-Oct-12 08:29N 49°07' W 123°11'0 0.0
2017-Oct-12 08:00N 49°07' W 123°11'0 0.0
2017-Oct-12 07:30N 49°07' W 123°11'3 5.2
2017-Oct-12 07:01N 49°07' W 123°15'4 8.4
2017-Oct-12 06:30N 49°04' W 123°19'611.9
2017-Oct-12 06:00N 49°07' W 123°11'0 0.0
2017-Oct-12 05:30N 49°07' W 123°11'0 0.0
2017-Oct-12 05:00N 49°07' W 123°11'0 0.0
2017-Oct-12 04:30N 49°07' W 123°11'0 0.0
2017-Oct-12 04:00N 49°07' W 123°11'0 0.0
2017-Oct-12 03:28N 49°07' W 123°11'0 0.0
2017-Oct-12 03:00N 49°07' W 123°11'0 0.0
2017-Oct-12 02:31N 49°07' W 123°11'0 0.0
2017-Oct-12 02:00N 49°07' W 123°11'0 0.0
2017-Oct-12 01:29N 49°07' W 123°11'0 0.0
2017-Oct-12 01:00N 49°07' W 123°11'0 0.0
2017-Oct-12 00:27N 49°07' W 123°11'0 0.0
2017-Oct-11 23:59N 49°07' W 123°11'0 0.0
2017-Oct-11 23:29N 49°07' W 123°11'0 0.0
2017-Oct-11 22:59N 49°07' W 123°11'0 0.0
2017-Oct-11 22:27N 49°07' W 123°11'0 0.0
2017-Oct-11 22:00N 49°07' W 123°11'0 0.0
2017-Oct-11 21:06N 49°07' W 123°11'0 0.0
2017-Oct-11 20:56N 49°07' W 123°11'0 0.0
2017-Oct-11 20:27N 49°07' W 123°11'0 0.0
2017-Oct-11 20:00N 49°07' W 123°11'0 0.0
2017-Oct-11 19:30N 49°07' W 123°11'0 0.0
2017-Oct-11 19:00N 49°07' W 123°11'0 0.0
2017-Oct-11 18:31N 49°07' W 123°11'0 0.0
2017-Oct-11 18:00N 49°07' W 123°11'0 0.0
2017-Oct-11 17:30N 49°07' W 123°11'0 0.0
2017-Oct-11 16:56N 49°07' W 123°11'0 0.0
2017-Oct-11 00:00N 49°07' W 123°11'0 0.1
2017-Oct-10 23:30N 49°07' W 123°11'0 0.0
2017-Oct-10 22:59N 49°07' W 123°11'0 0.0
2017-Oct-10 22:29N 49°07' W 123°11'0 0.0
2017-Oct-10 22:00N 49°07' W 123°11'3 5.4
2017-Oct-10 21:30N 49°07' W 123°15'1 1.4
2017-Oct-10 21:00N 49°08' W 123°14'2 3.7
2017-Oct-10 20:29N 49°07' W 123°11'0 0.4
2017-Oct-10 20:00N 49°07' W 123°11'0 0.0
2017-Oct-10 19:30N 49°07' W 123°11'0 0.0
2017-Oct-10 18:59N 49°07' W 123°11'0 0.0
2017-Oct-10 18:28N 49°07' W 123°11'0 0.0
2017-Oct-10 17:59N 49°07' W 123°11'0 0.0
2017-Oct-10 17:30N 49°07' W 123°11'0 0.0
2017-Oct-10 17:00N 49°07' W 123°11'0 0.0
2017-Oct-10 16:30N 49°07' W 123°11'0 0.0
2017-Oct-10 15:44N 49°07' W 123°11'0 0.0
2017-Oct-10 15:30N 49°07' W 123°11'0 0.0
2017-Oct-10 15:00N 49°07' W 123°11'4 4.2
2017-Oct-10 14:00N 49°06' W 123°17'0 1.0
2017-Oct-10 13:30N 49°06' W 123°18'5 9.1
2017-Oct-10 13:00N 49°07' W 123°11'0 0.0
2017-Oct-10 12:28N 49°07' W 123°11'0 0.0
2017-Oct-10 12:00N 49°07' W 123°11'0 0.0
2017-Oct-10 11:28N 49°07' W 123°11'0 0.0
2017-Oct-10 11:00N 49°07' W 123°11'0 0.0
2017-Oct-10 10:30N 49°07' W 123°11'0 0.0
2017-Oct-10 10:00N 49°07' W 123°11'0 0.0
2017-Oct-10 09:30N 49°07' W 123°11'0 0.0
2017-Oct-10 09:00N 49°07' W 123°11'0 0.0
2017-Oct-10 08:30N 49°07' W 123°11'0 0.0
2017-Oct-10 08:00N 49°07' W 123°11'0 0.0
2017-Oct-10 07:29N 49°07' W 123°11'0 0.0
2017-Oct-10 07:00N 49°07' W 123°11'0 0.0
2017-Oct-10 06:29N 49°07' W 123°11'0 0.0
2017-Oct-10 05:57N 49°07' W 123°11'0 0.0
2017-Oct-10 05:30N 49°07' W 123°11'0 0.0
2017-Oct-10 05:00N 49°07' W 123°11'0 0.0
2017-Oct-10 04:18N 49°07' W 123°11'0 0.0
2017-Oct-10 04:00N 49°07' W 123°11'0 0.0
2017-Oct-10 03:30N 49°07' W 123°11'2 4.5
2017-Oct-10 03:00N 49°08' W 123°15'0 0.5
2017-Oct-10 02:30N 49°08' W 123°14'2 4.2
2017-Oct-10 02:00N 49°07' W 123°11'0 0.0
2017-Oct-10 01:30N 49°07' W 123°11'0 0.0
2017-Oct-10 01:00N 49°07' W 123°11'0 0.0
2017-Oct-10 00:30N 49°07' W 123°11'0 0.0
2017-Oct-10 00:01N 49°07' W 123°11'0 0.0
2017-Oct-09 23:30N 49°07' W 123°11'0 0.0
2017-Oct-09 23:00N 49°07' W 123°11'0 0.0
2017-Oct-09 22:30N 49°07' W 123°11'0 0.0
2017-Oct-09 22:01N 49°07' W 123°11'0 0.0
2017-Oct-09 21:30N 49°07' W 123°11'0 0.0
2017-Oct-09 21:00N 49°07' W 123°11'0 0.0
2017-Oct-09 20:30N 49°07' W 123°11'0 0.0
2017-Oct-09 20:00N 49°07' W 123°11'0 0.0
2017-Oct-09 19:30N 49°07' W 123°11'0 0.0
2017-Oct-09 19:00N 49°07' W 123°11'0 0.0
2017-Oct-09 18:30N 49°07' W 123°11'0 0.0
2017-Oct-09 18:00N 49°07' W 123°11'0 0.0
2017-Oct-09 17:30N 49°07' W 123°11'0 0.0
2017-Oct-09 17:00N 49°07' W 123°11'0 0.0
2017-Oct-09 16:30N 49°07' W 123°11'0 0.0
2017-Oct-09 16:00N 49°07' W 123°11'0 0.0
2017-Oct-09 15:30N 49°07' W 123°11'0 0.0
2017-Oct-09 15:01N 49°07' W 123°11'0 0.0
2017-Oct-09 14:30N 49°07' W 123°11'0 0.0
2017-Oct-09 14:00N 49°07' W 123°11'0 0.0
2017-Oct-09 13:30N 49°07' W 123°11'0 0.0
2017-Oct-09 13:00N 49°07' W 123°11'0 0.0
2017-Oct-09 12:30N 49°07' W 123°11'0 0.0
2017-Oct-09 12:01N 49°07' W 123°11'0 0.0
2017-Oct-09 11:31N 49°07' W 123°11'3 5.9
2017-Oct-09 11:00N 49°07' W 123°16'4 7.8
2017-Oct-09 10:31N 49°04' W 123°19'611.9
2017-Oct-09 10:00N 49°07' W 123°11'0 0.0
2017-Oct-09 09:28N 49°07' W 123°11'0 0.0
2017-Oct-09 09:00N 49°07' W 123°11'0 0.0
2017-Oct-09 08:30N 49°07' W 123°11'0 0.0
2017-Oct-09 08:00N 49°07' W 123°11'0 0.0
2017-Oct-09 07:28N 49°07' W 123°11'0 0.0
2017-Oct-09 07:00N 49°07' W 123°11'0 0.0
2017-Oct-09 06:30N 49°07' W 123°11'0 0.0
2017-Oct-09 06:01N 49°07' W 123°11'0 0.0
2017-Oct-09 05:31N 49°07' W 123°11'0 0.0
2017-Oct-09 05:00N 49°07' W 123°11'0 0.0
2017-Oct-09 04:31N 49°07' W 123°11'0 0.0
2017-Oct-09 03:59N 49°07' W 123°11'0 0.0
2017-Oct-09 03:30N 49°07' W 123°11'0 0.0
2017-Oct-09 03:00N 49°07' W 123°11'0 0.0
2017-Oct-09 02:31N 49°07' W 123°11'0 0.0
2017-Oct-09 01:59N 49°07' W 123°11'0 0.0
2017-Oct-09 01:30N 49°07' W 123°11'0 0.0
2017-Oct-09 01:00N 49°07' W 123°11'0 0.0
2017-Oct-09 00:30N 49°07' W 123°11'0 0.0
2017-Oct-09 00:01N 49°07' W 123°11'0 0.0
2017-Oct-08 23:27N 49°07' W 123°11'0 0.0
2017-Oct-08 23:01N 49°07' W 123°11'0 0.0
2017-Oct-08 22:30N 49°07' W 123°11'0 0.0
2017-Oct-08 22:00N 49°07' W 123°11'0 0.0
2017-Oct-08 21:30N 49°07' W 123°11'0 0.0
2017-Oct-08 21:00N 49°07' W 123°11'0 0.0
2017-Oct-08 20:25N 49°07' W 123°11'0 0.0
2017-Oct-08 20:01N 49°07' W 123°11'713.8
2017-Oct-08 19:30N 49°03' W 123°20'713.2
2017-Oct-08 18:59N 49°07' W 123°11'0 0.1
2017-Oct-08 18:28N 49°07' W 123°11'0 0.0
2017-Oct-08 18:00N 49°07' W 123°11'0 0.0
2017-Oct-08 17:30N 49°07' W 123°11'0 0.0
2017-Oct-08 17:00N 49°07' W 123°11'0 0.0
2017-Oct-08 16:30N 49°07' W 123°11'0 0.1
2017-Oct-08 16:00N 49°07' W 123°11'0 0.1
2017-Oct-08 15:30N 49°07' W 123°11'0 0.0
2017-Oct-08 15:00N 49°07' W 123°11'0 0.0
2017-Oct-08 14:30N 49°07' W 123°11'0 0.0
2017-Oct-08 14:00N 49°07' W 123°11'0 0.0
2017-Oct-08 13:30N 49°07' W 123°11'0 0.0
2017-Oct-08 13:00N 49°07' W 123°11'0 0.0
2017-Oct-08 12:30N 49°07' W 123°11'0 0.0
2017-Oct-08 12:00N 49°07' W 123°11'0 0.0
2017-Oct-08 11:30N 49°07' W 123°11'0 0.0
2017-Oct-08 11:00N 49°07' W 123°11'0 0.0
2017-Oct-08 10:30N 49°07' W 123°11'0 0.0
2017-Oct-08 10:00N 49°07' W 123°11'0 0.0
2017-Oct-08 09:28N 49°07' W 123°11'0 0.0
2017-Oct-08 08:52N 49°07' W 123°11'0 0.0
2017-Oct-08 08:30N 49°07' W 123°11'0 0.0
2017-Oct-08 08:00N 49°07' W 123°11'0 0.0
2017-Oct-08 07:30N 49°07' W 123°11'0 0.0
2017-Oct-08 07:00N 49°07' W 123°11'0 0.0
2017-Oct-08 06:30N 49°07' W 123°11'0 0.0
2017-Oct-08 06:00N 49°07' W 123°11'0 0.0
2017-Oct-08 05:30N 49°07' W 123°11'0 0.0
2017-Oct-08 05:00N 49°07' W 123°11'0 0.0
2017-Oct-08 04:29N 49°07' W 123°11'0 0.0
2017-Oct-08 04:00N 49°07' W 123°11'0 0.0
2017-Oct-08 03:30N 49°07' W 123°11'0 0.0
2017-Oct-08 03:00N 49°07' W 123°11'4 8.3
2017-Oct-08 02:30N 49°07' W 123°17'4 7.9
2017-Oct-08 02:00N 49°07' W 123°11'0 0.0
2017-Oct-08 01:30N 49°07' W 123°11'0 0.1
2017-Oct-08 01:00N 49°07' W 123°11'0 0.1
2017-Oct-08 00:30N 49°07' W 123°11'0 0.0
2017-Oct-08 00:00N 49°07' W 123°11'0 0.0
2017-Oct-07 23:30N 49°07' W 123°11'0 0.1
2017-Oct-07 23:00N 49°07' W 123°11'0 0.1
2017-Oct-07 22:30N 49°07' W 123°11'1 1.2
2017-Oct-07 22:00N 49°07' W 123°12'3 4.9
2017-Oct-07 21:30N 49°07' W 123°16'3 6.3
2017-Oct-07 21:00N 49°07' W 123°11'0 0.0
2017-Oct-07 20:29N 49°07' W 123°11'0 0.0
2017-Oct-07 20:00N 49°07' W 123°11'0 0.0
2017-Oct-07 19:29N 49°07' W 123°11'0 0.0
2017-Oct-07 19:00N 49°07' W 123°11'0 0.0
2017-Oct-07 18:28N 49°07' W 123°11'0 0.0
2017-Oct-07 18:00N 49°07' W 123°11'  
Track history (hours):
 
Tides and Currents Weather Stations Pressure Air Temp Water Temp Dewpoint Dewpoint Depression Visibility Wind Speed Wind Dir Waves Ship Positions

Pacific Navigator

Last reported at 2017-Oct-17 17:52 UTC. Time now 2017-Oct-22 13:32 UTC.
Position N 48°26' W 123°23'.

Length 35 m.

Type: Pleasure craft. MMSI: 123456788.

Date/timePositionNaut miles runAvg speedWind from/ knotsBaromVisibWave heightAir tempDewpointWater temp
2017-Oct-17 17:52N 48°26' W 123°23'0 0.0
2017-Oct-17 17:30N 48°26' W 123°23'0 0.2
2017-Oct-17 17:01N 48°26' W 123°22'1 2.3
2017-Oct-17 16:31N 48°25' W 123°23'0 0.0
2017-Oct-17 16:01N 48°25' W 123°23'0 0.0
2017-Oct-17 15:30N 48°25' W 123°23'0 0.0
2017-Oct-17 15:01N 48°25' W 123°23'0 0.0
2017-Oct-17 14:31N 48°25' W 123°23'0 0.0
2017-Oct-17 14:01N 48°25' W 123°23'0 0.0
2017-Oct-17 13:31N 48°25' W 123°23'0 0.0
2017-Oct-17 13:01N 48°25' W 123°23'0 0.0
2017-Oct-17 12:30N 48°25' W 123°23'0 0.0
2017-Oct-17 12:01N 48°25' W 123°23'0 0.0
2017-Oct-17 11:30N 48°25' W 123°23'0 0.0
2017-Oct-17 11:01N 48°25' W 123°23'0 0.0
2017-Oct-17 10:31N 48°25' W 123°23'0 0.0
2017-Oct-17 10:01N 48°25' W 123°23'0 0.0
2017-Oct-17 09:30N 48°25' W 123°23'0 0.0
2017-Oct-17 09:00N 48°25' W 123°23'0 0.0
2017-Oct-17 08:30N 48°25' W 123°23'0 0.0
2017-Oct-17 08:00N 48°25' W 123°23'0 0.0
2017-Oct-17 07:30N 48°25' W 123°23'0 0.1
2017-Oct-17 07:00N 48°25' W 123°23'0 0.1
2017-Oct-17 06:30N 48°25' W 123°23'0 0.0
2017-Oct-17 06:00N 48°25' W 123°23'0 0.1
2017-Oct-17 05:30N 48°25' W 123°23'0 0.1
2017-Oct-17 05:00N 48°25' W 123°23'0 0.0
2017-Oct-17 04:30N 48°25' W 123°23'0 0.0
2017-Oct-17 04:00N 48°25' W 123°23'0 0.0
2017-Oct-17 03:30N 48°25' W 123°23'0 0.0
2017-Oct-17 03:00N 48°25' W 123°23'0 0.0
2017-Oct-17 02:30N 48°25' W 123°23'0 0.0
2017-Oct-17 02:00N 48°25' W 123°23'0 0.0
2017-Oct-17 01:30N 48°25' W 123°23'0 0.0
2017-Oct-17 01:00N 48°25' W 123°23'0 0.0
2017-Oct-17 00:30N 48°25' W 123°23'0 0.0
2017-Oct-17 00:00N 48°25' W 123°23'3 6.5
2017-Oct-16 23:31N 48°25' W 123°18'918.9
2017-Oct-16 23:00N 48°34' W 123°21'1117.2
2017-Oct-16 22:21N 48°43' W 123°31'719.1
2017-Oct-16 22:00N 48°49' W 123°34'1020.8
2017-Oct-16 21:31N 48°59' W 123°37'1019.8
2017-Oct-16 21:00N 49°05' W 123°24'917.0
2017-Oct-16 20:29N 49°07' W 123°11'0 0.0
2017-Oct-16 19:59N 49°07' W 123°11'0 0.0
2017-Oct-16 19:30N 49°07' W 123°11'0 0.0
2017-Oct-16 19:00N 49°07' W 123°11'0 0.0
2017-Oct-16 18:29N 49°07' W 123°11'0 0.0
2017-Oct-16 17:59N 49°07' W 123°11'0 0.0
2017-Oct-16 17:30N 49°07' W 123°11'0 0.0
2017-Oct-16 16:58N 49°07' W 123°11'0 0.0
2017-Oct-16 16:30N 49°07' W 123°11'0 0.0
2017-Oct-16 16:00N 49°07' W 123°11'0 0.0
2017-Oct-16 15:30N 49°07' W 123°11'0 0.0
2017-Oct-16 14:58N 49°07' W 123°11'0 0.0
2017-Oct-16 14:30N 49°07' W 123°11'0 0.0
2017-Oct-16 13:30N 49°07' W 123°11'0 0.0
2017-Oct-16 13:00N 49°07' W 123°11'0 0.0
2017-Oct-16 12:30N 49°07' W 123°11'0 0.0
2017-Oct-16 12:00N 49°07' W 123°11'0 0.0
2017-Oct-16 11:30N 49°07' W 123°11'4 7.8
2017-Oct-16 11:01N 49°07' W 123°17'3 5.4
2017-Oct-16 10:30N 49°08' W 123°13'1 2.6
2017-Oct-16 10:00N 49°07' W 123°11'0 0.0
2017-Oct-16 09:30N 49°07' W 123°11'0 0.0
2017-Oct-16 09:00N 49°07' W 123°11'0 0.0
2017-Oct-16 08:30N 49°07' W 123°11'0 0.0
2017-Oct-16 08:00N 49°07' W 123°11'5 9.3
2017-Oct-16 07:30N 49°06' W 123°18'2 3.7
2017-Oct-16 07:00N 49°07' W 123°16'3 5.8
2017-Oct-16 06:30N 49°07' W 123°11'0 0.1
2017-Oct-16 06:00N 49°07' W 123°11'0 0.0
2017-Oct-16 05:30N 49°07' W 123°11'0 0.0
2017-Oct-16 05:00N 49°07' W 123°11'0 0.0
2017-Oct-16 04:30N 49°07' W 123°11'0 0.0
2017-Oct-16 04:00N 49°07' W 123°11'0 0.0
2017-Oct-16 03:31N 49°07' W 123°11'0 0.1
2017-Oct-16 03:00N 49°07' W 123°11'611.5
2017-Oct-16 02:30N 49°05' W 123°19'3 6.8
2017-Oct-16 02:00N 49°07' W 123°15'3 5.3
2017-Oct-16 01:30N 49°07' W 123°11'612.0
2017-Oct-16 01:00N 49°03' W 123°18'612.1
2017-Oct-16 00:30N 49°07' W 123°11'4 8.7
2017-Oct-16 00:00N 49°06' W 123°18'4 8.7
2017-Oct-15 23:30N 49°07' W 123°11'0 0.0
2017-Oct-15 23:00N 49°07' W 123°11'0 0.0
2017-Oct-15 22:30N 49°07' W 123°11'0 0.0
2017-Oct-15 21:59N 49°07' W 123°11'0 0.0
2017-Oct-15 21:30N 49°07' W 123°11'0 0.0
2017-Oct-15 21:00N 49°07' W 123°11'0 0.0
2017-Oct-15 20:30N 49°07' W 123°11'0 0.0
2017-Oct-15 20:00N 49°07' W 123°11'0 0.0
2017-Oct-15 19:29N 49°07' W 123°11'0 0.5
2017-Oct-15 19:00N 49°07' W 123°12'713.8
2017-Oct-15 18:30N 49°03' W 123°19'713.0
2017-Oct-15 18:00N 49°08' W 123°12'1 1.3
2017-Oct-15 17:27N 49°07' W 123°11'0 0.0
2017-Oct-15 17:00N 49°07' W 123°11'0 0.0
2017-Oct-15 16:30N 49°07' W 123°11'0 0.0
2017-Oct-15 16:00N 49°07' W 123°11'0 0.0
2017-Oct-15 15:30N 49°07' W 123°11'0 0.0
2017-Oct-15 15:00N 49°07' W 123°11'0 0.0
2017-Oct-15 14:00N 49°07' W 123°11'0 0.0
2017-Oct-15 13:30N 49°07' W 123°11'0 0.0
2017-Oct-15 13:00N 49°07' W 123°11'0 0.0
2017-Oct-15 12:30N 49°07' W 123°11'0 0.0
2017-Oct-15 12:00N 49°07' W 123°11'0 0.0
2017-Oct-15 11:30N 49°07' W 123°11'0 0.0
2017-Oct-15 11:00N 49°07' W 123°11'510.8
2017-Oct-15 10:30N 49°06' W 123°19'0 0.4
2017-Oct-15 10:00N 49°06' W 123°18'1 2.1
2017-Oct-15 09:31N 49°07' W 123°17'0 0.9
2017-Oct-15 09:00N 49°07' W 123°17'4 7.2
2017-Oct-15 08:30N 49°07' W 123°11'0 0.0
2017-Oct-15 08:00N 49°07' W 123°11'0 0.0
2017-Oct-15 07:30N 49°07' W 123°11'0 0.0
2017-Oct-15 07:00N 49°07' W 123°11'0 0.0
2017-Oct-15 06:30N 49°07' W 123°11'0 0.0
2017-Oct-15 06:00N 49°07' W 123°11'0 0.0
2017-Oct-15 05:31N 49°07' W 123°11'0 0.0
2017-Oct-15 05:00N 49°07' W 123°11'0 0.0
2017-Oct-15 04:30N 49°07' W 123°11'0 0.0
2017-Oct-15 04:00N 49°07' W 123°11'0 0.0
2017-Oct-15 03:30N 49°07' W 123°11'0 0.0
2017-Oct-15 03:00N 49°07' W 123°11'0 0.0
2017-Oct-15 02:30N 49°07' W 123°11'0 0.0
2017-Oct-15 02:00N 49°07' W 123°11'3 5.6
2017-Oct-15 01:30N 49°07' W 123°15'2 3.1
2017-Oct-15 01:00N 49°08' W 123°13'5 9.2
2017-Oct-15 00:30N 49°06' W 123°19'611.1
2017-Oct-15 00:00N 49°07' W 123°11'0 0.0
2017-Oct-14 23:30N 49°07' W 123°11'0 0.0
2017-Oct-14 23:00N 49°07' W 123°11'0 0.0
2017-Oct-14 22:30N 49°07' W 123°11'0 0.0
2017-Oct-14 22:00N 49°07' W 123°11'0 0.0
2017-Oct-14 21:30N 49°07' W 123°11'0 0.0
2017-Oct-14 21:00N 49°07' W 123°11'0 0.0
2017-Oct-14 20:29N 49°07' W 123°11'0 0.0
2017-Oct-14 20:00N 49°07' W 123°11'0 0.0
2017-Oct-14 19:30N 49°07' W 123°11'0 0.0
2017-Oct-14 19:00N 49°07' W 123°11'0 0.0
2017-Oct-14 18:30N 49°07' W 123°11'0 0.0
2017-Oct-14 18:00N 49°07' W 123°11'0 0.0
2017-Oct-14 17:30N 49°07' W 123°11'0 0.0
2017-Oct-14 17:00N 49°07' W 123°11'0 0.0
2017-Oct-14 16:30N 49°07' W 123°11'0 0.0
2017-Oct-14 16:00N 49°07' W 123°11'0 0.0
2017-Oct-14 15:30N 49°07' W 123°11'0 0.0
2017-Oct-14 15:00N 49°07' W 123°11'0 0.0
2017-Oct-14 14:30N 49°07' W 123°11'0 0.0
2017-Oct-14 14:00N 49°07' W 123°11'0 0.0
2017-Oct-14 13:30N 49°07' W 123°11'0 0.0
2017-Oct-14 13:00N 49°07' W 123°11'0 0.0
2017-Oct-14 12:30N 49°07' W 123°11'4 8.4
2017-Oct-14 12:00N 49°07' W 123°17'1 2.3
2017-Oct-14 11:30N 49°06' W 123°19'510.3
2017-Oct-14 11:00N 49°07' W 123°11'0 0.0
2017-Oct-14 10:28N 49°07' W 123°11'0 0.0
2017-Oct-14 09:58N 49°07' W 123°11'0 0.0
2017-Oct-14 09:24N 49°07' W 123°11'0 0.0
2017-Oct-14 08:58N 49°07' W 123°11'0 0.0
2017-Oct-14 08:30N 49°07' W 123°11'0 0.0
2017-Oct-14 08:01N 49°07' W 123°11'0 0.0
2017-Oct-14 07:30N 49°07' W 123°11'0 0.0
2017-Oct-14 07:01N 49°07' W 123°11'0 0.0
2017-Oct-14 06:31N 49°07' W 123°11'2 4.1
2017-Oct-14 06:00N 49°08' W 123°14'1 2.4
2017-Oct-14 05:30N 49°07' W 123°16'3 6.1
2017-Oct-14 05:00N 49°07' W 123°11'0 0.0
2017-Oct-14 04:29N 49°07' W 123°11'0 0.0
2017-Oct-14 04:00N 49°07' W 123°11'0 0.0
2017-Oct-14 03:30N 49°07' W 123°11'0 0.0
2017-Oct-14 02:59N 49°07' W 123°11'0 0.0
2017-Oct-14 02:27N 49°07' W 123°11'0 0.0
2017-Oct-14 02:00N 49°07' W 123°11'0 0.0
2017-Oct-14 01:29N 49°07' W 123°11'0 0.0
2017-Oct-14 00:47N 49°07' W 123°11'0 0.0
2017-Oct-13 23:19N 49°07' W 123°11'0 0.0
2017-Oct-13 23:00N 49°07' W 123°11'0 0.0
2017-Oct-13 22:30N 49°07' W 123°11'0 0.0
2017-Oct-13 21:57N 49°07' W 123°11'0 0.0
2017-Oct-13 21:30N 49°07' W 123°11'0 0.0
2017-Oct-13 21:00N 49°07' W 123°11'0 0.0
2017-Oct-13 20:30N 49°07' W 123°11'0 0.0
2017-Oct-13 20:00N 49°07' W 123°11'0 0.0
2017-Oct-13 19:30N 49°07' W 123°11'0 0.0
2017-Oct-13 18:59N 49°07' W 123°11'3 5.5
2017-Oct-13 18:30N 49°07' W 123°15'0 0.6
2017-Oct-13 18:00N 49°08' W 123°15'2 4.4
2017-Oct-13 17:27N 49°07' W 123°11'0 0.0
2017-Oct-13 17:00N 49°07' W 123°11'0 0.0
2017-Oct-13 16:28N 49°07' W 123°11'0 0.0
2017-Oct-13 15:56N 49°07' W 123°11'0 0.0
2017-Oct-13 15:30N 49°07' W 123°11'0 0.0
2017-Oct-13 15:00N 49°07' W 123°11'0 0.0
2017-Oct-13 14:30N 49°07' W 123°11'0 0.0
2017-Oct-13 13:52N 49°07' W 123°11'0 0.0
2017-Oct-13 13:24N 49°07' W 123°11'0 0.0
2017-Oct-13 12:50N 49°07' W 123°11'0 0.0
2017-Oct-13 12:28N 49°07' W 123°11'0 0.0
2017-Oct-13 11:56N 49°07' W 123°11'3 6.7
2017-Oct-13 11:30N 49°07' W 123°16'5 9.1
2017-Oct-13 11:00N 49°03' W 123°19'7 5.8
2017-Oct-13 09:53N 49°07' W 123°11'0 0.0
2017-Oct-13 09:22N 49°07' W 123°11'2 4.8
2017-Oct-13 09:00N 49°08' W 123°14'611.4
2017-Oct-13 08:31N 49°03' W 123°18'612.8
2017-Oct-13 08:00N 49°07' W 123°11'0 0.0
2017-Oct-13 07:15N 49°07' W 123°11'0 0.0
2017-Oct-13 06:59N 49°07' W 123°11'0 0.0
2017-Oct-13 06:30N 49°07' W 123°11'0 0.0
2017-Oct-13 06:00N 49°07' W 123°11'0 0.0
2017-Oct-13 05:28N 49°07' W 123°11'0 0.0
2017-Oct-13 04:55N 49°07' W 123°11'0 0.0
2017-Oct-13 04:30N 49°07' W 123°11'0 0.0
2017-Oct-13 04:00N 49°07' W 123°11'0 0.0
2017-Oct-13 03:30N 49°07' W 123°11'0 0.0
2017-Oct-13 02:59N 49°07' W 123°11'0 0.1
2017-Oct-13 02:27N 49°07' W 123°11'0 0.1
2017-Oct-13 02:00N 49°07' W 123°11'0 0.0
2017-Oct-13 01:29N 49°07' W 123°11'0 0.0
2017-Oct-13 00:59N 49°07' W 123°11'0 0.0
2017-Oct-13 00:22N 49°07' W 123°11'0 0.0
2017-Oct-13 00:00N 49°07' W 123°11'0 0.0
2017-Oct-12 23:30N 49°07' W 123°11'0 0.0
2017-Oct-12 23:00N 49°07' W 123°11'0 0.5
2017-Oct-12 22:30N 49°07' W 123°12'4 7.1
2017-Oct-12 22:00N 49°07' W 123°17'2 4.8
2017-Oct-12 21:30N 49°08' W 123°14'4 7.8
2017-Oct-12 21:00N 49°06' W 123°19'3 5.2
2017-Oct-12 20:31N 49°04' W 123°20'713.2
2017-Oct-12 20:00N 49°07' W 123°11'0 0.0
2017-Oct-12 19:30N 49°07' W 123°11'0 0.0
2017-Oct-12 19:00N 49°07' W 123°11'0 0.0
2017-Oct-12 18:29N 49°07' W 123°11'0 0.0
2017-Oct-12 17:59N 49°07' W 123°11'0 0.0
2017-Oct-12 17:26N 49°07' W 123°11'0 0.0
2017-Oct-12 17:00N 49°07' W 123°11'0 0.0
2017-Oct-12 16:30N 49°07' W 123°11'0 0.0
2017-Oct-12 16:00N 49°07' W 123°11'0 0.0
2017-Oct-12 15:30N 49°07' W 123°11'0 0.0
2017-Oct-12 14:59N 49°07' W 123°11'0 0.0
2017-Oct-12 14:26N 49°07' W 123°11'0 0.0
2017-Oct-12 13:59N 49°07' W 123°11'0 0.0
2017-Oct-12 13:30N 49°07' W 123°11'0 0.0
2017-Oct-12 12:52N 49°07' W 123°11'0 0.0
2017-Oct-12 12:30N 49°07' W 123°11'0 0.0
2017-Oct-12 11:54N 49°07' W 123°11'0 0.0
2017-Oct-12 11:29N 49°07' W 123°11'0 0.0
2017-Oct-12 10:57N 49°07' W 123°11'0 0.1
2017-Oct-12 10:29N 49°07' W 123°11'0 0.1
2017-Oct-12 10:00N 49°07' W 123°11'0 0.0
2017-Oct-12 09:30N 49°07' W 123°11'0 0.0
2017-Oct-12 09:00N 49°07' W 123°11'0 0.0
2017-Oct-12 08:29N 49°07' W 123°11'0 0.0
2017-Oct-12 08:00N 49°07' W 123°11'0 0.0
2017-Oct-12 07:30N 49°07' W 123°11'3 5.2
2017-Oct-12 07:01N 49°07' W 123°15'4 8.4
2017-Oct-12 06:30N 49°04' W 123°19'611.9
2017-Oct-12 06:00N 49°07' W 123°11'0 0.0
2017-Oct-12 05:30N 49°07' W 123°11'0 0.0
2017-Oct-12 05:00N 49°07' W 123°11'0 0.0
2017-Oct-12 04:30N 49°07' W 123°11'0 0.0
2017-Oct-12 04:00N 49°07' W 123°11'0 0.0
2017-Oct-12 03:28N 49°07' W 123°11'0 0.0
2017-Oct-12 03:00N 49°07' W 123°11'0 0.0
2017-Oct-12 02:31N 49°07' W 123°11'0 0.0
2017-Oct-12 02:00N 49°07' W 123°11'0 0.0
2017-Oct-12 01:29N 49°07' W 123°11'0 0.0
2017-Oct-12 01:00N 49°07' W 123°11'0 0.0
2017-Oct-12 00:27N 49°07' W 123°11'0 0.0
2017-Oct-11 23:59N 49°07' W 123°11'0 0.0
2017-Oct-11 23:29N 49°07' W 123°11'0 0.0
2017-Oct-11 22:59N 49°07' W 123°11'0 0.0
2017-Oct-11 22:27N 49°07' W 123°11'0 0.0
2017-Oct-11 22:00N 49°07' W 123°11'0 0.0
2017-Oct-11 21:06N 49°07' W 123°11'0 0.0
2017-Oct-11 20:56N 49°07' W 123°11'0 0.0
2017-Oct-11 20:27N 49°07' W 123°11'0 0.0
2017-Oct-11 20:00N 49°07' W 123°11'0 0.0
2017-Oct-11 19:30N 49°07' W 123°11'0 0.0
2017-Oct-11 19:00N 49°07' W 123°11'0 0.0
2017-Oct-11 18:31N 49°07' W 123°11'0 0.0
2017-Oct-11 18:00N 49°07' W 123°11'0 0.0
2017-Oct-11 17:30N 49°07' W 123°11'0 0.0
2017-Oct-11 16:56N 49°07' W 123°11'0 0.0
2017-Oct-11 00:00N 49°07' W 123°11'0 0.1
2017-Oct-10 23:30N 49°07' W 123°11'0 0.0
2017-Oct-10 22:59N 49°07' W 123°11'0 0.0
2017-Oct-10 22:29N 49°07' W 123°11'0 0.0
2017-Oct-10 22:00N 49°07' W 123°11'3 5.4
2017-Oct-10 21:30N 49°07' W 123°15'1 1.4
2017-Oct-10 21:00N 49°08' W 123°14'2 3.7
2017-Oct-10 20:29N 49°07' W 123°11'0 0.4
2017-Oct-10 20:00N 49°07' W 123°11'0 0.0
2017-Oct-10 19:30N 49°07' W 123°11'0 0.0
2017-Oct-10 18:59N 49°07' W 123°11'0 0.0
2017-Oct-10 18:28N 49°07' W 123°11'0 0.0
2017-Oct-10 17:59N 49°07' W 123°11'0 0.0
2017-Oct-10 17:30N 49°07' W 123°11'0 0.0
2017-Oct-10 17:00N 49°07' W 123°11'0 0.0
2017-Oct-10 16:30N 49°07' W 123°11'0 0.0
2017-Oct-10 15:44N 49°07' W 123°11'0 0.0
2017-Oct-10 15:30N 49°07' W 123°11'0 0.0
2017-Oct-10 15:00N 49°07' W 123°11'4 4.2
2017-Oct-10 14:00N 49°06' W 123°17'0 1.0
2017-Oct-10 13:30N 49°06' W 123°18'5 9.1
2017-Oct-10 13:00N 49°07' W 123°11'0 0.0
2017-Oct-10 12:28N 49°07' W 123°11'0 0.0
2017-Oct-10 12:00N 49°07' W 123°11'0 0.0
2017-Oct-10 11:28N 49°07' W 123°11'0 0.0
2017-Oct-10 11:00N 49°07' W 123°11'0 0.0
2017-Oct-10 10:30N 49°07' W 123°11'0 0.0
2017-Oct-10 10:00N 49°07' W 123°11'0 0.0
2017-Oct-10 09:30N 49°07' W 123°11'0 0.0
2017-Oct-10 09:00N 49°07' W 123°11'0 0.0
2017-Oct-10 08:30N 49°07' W 123°11'0 0.0
2017-Oct-10 08:00N 49°07' W 123°11'0 0.0
2017-Oct-10 07:29N 49°07' W 123°11'0 0.0
2017-Oct-10 07:00N 49°07' W 123°11'0 0.0
2017-Oct-10 06:29N 49°07' W 123°11'0 0.0
2017-Oct-10 05:57N 49°07' W 123°11'0 0.0
2017-Oct-10 05:30N 49°07' W 123°11'0 0.0
2017-Oct-10 05:00N 49°07' W 123°11'0 0.0
2017-Oct-10 04:18N 49°07' W 123°11'0 0.0
2017-Oct-10 04:00N 49°07' W 123°11'0 0.0
2017-Oct-10 03:30N 49°07' W 123°11'2 4.5
2017-Oct-10 03:00N 49°08' W 123°15'0 0.5
2017-Oct-10 02:30N 49°08' W 123°14'2 4.2
2017-Oct-10 02:00N 49°07' W 123°11'0 0.0
2017-Oct-10 01:30N 49°07' W 123°11'0 0.0
2017-Oct-10 01:00N 49°07' W 123°11'0 0.0
2017-Oct-10 00:30N 49°07' W 123°11'0 0.0
2017-Oct-10 00:01N 49°07' W 123°11'0 0.0
2017-Oct-09 23:30N 49°07' W 123°11'0 0.0
2017-Oct-09 23:00N 49°07' W 123°11'0 0.0
2017-Oct-09 22:30N 49°07' W 123°11'0 0.0
2017-Oct-09 22:01N 49°07' W 123°11'0 0.0
2017-Oct-09 21:30N 49°07' W 123°11'0 0.0
2017-Oct-09 21:00N 49°07' W 123°11'0 0.0
2017-Oct-09 20:30N 49°07' W 123°11'0 0.0
2017-Oct-09 20:00N 49°07' W 123°11'0 0.0
2017-Oct-09 19:30N 49°07' W 123°11'0 0.0
2017-Oct-09 19:00N 49°07' W 123°11'0 0.0
2017-Oct-09 18:30N 49°07' W 123°11'0 0.0
2017-Oct-09 18:00N 49°07' W 123°11'0 0.0
2017-Oct-09 17:30N 49°07' W 123°11'0 0.0
2017-Oct-09 17:00N 49°07' W 123°11'0 0.0
2017-Oct-09 16:30N 49°07' W 123°11'0 0.0
2017-Oct-09 16:00N 49°07' W 123°11'0 0.0
2017-Oct-09 15:30N 49°07' W 123°11'0 0.0
2017-Oct-09 15:01N 49°07' W 123°11'0 0.0
2017-Oct-09 14:30N 49°07' W 123°11'0 0.0
2017-Oct-09 14:00N 49°07' W 123°11'0 0.0
2017-Oct-09 13:30N 49°07' W 123°11'0 0.0
2017-Oct-09 13:00N 49°07' W 123°11'0 0.0
2017-Oct-09 12:30N 49°07' W 123°11'0 0.0
2017-Oct-09 12:01N 49°07' W 123°11'0 0.0
2017-Oct-09 11:31N 49°07' W 123°11'3 5.9
2017-Oct-09 11:00N 49°07' W 123°16'4 7.8
2017-Oct-09 10:31N 49°04' W 123°19'611.9
2017-Oct-09 10:00N 49°07' W 123°11'0 0.0
2017-Oct-09 09:28N 49°07' W 123°11'0 0.0
2017-Oct-09 09:00N 49°07' W 123°11'0 0.0
2017-Oct-09 08:30N 49°07' W 123°11'0 0.0
2017-Oct-09 08:00N 49°07' W 123°11'0 0.0
2017-Oct-09 07:28N 49°07' W 123°11'0 0.0
2017-Oct-09 07:00N 49°07' W 123°11'0 0.0
2017-Oct-09 06:30N 49°07' W 123°11'0 0.0
2017-Oct-09 06:01N 49°07' W 123°11'0 0.0
2017-Oct-09 05:31N 49°07' W 123°11'0 0.0
2017-Oct-09 05:00N 49°07' W 123°11'0 0.0
2017-Oct-09 04:31N 49°07' W 123°11'0 0.0
2017-Oct-09 03:59N 49°07' W 123°11'0 0.0
2017-Oct-09 03:30N 49°07' W 123°11'0 0.0
2017-Oct-09 03:00N 49°07' W 123°11'0 0.0
2017-Oct-09 02:31N 49°07' W 123°11'0 0.0
2017-Oct-09 01:59N 49°07' W 123°11'0 0.0
2017-Oct-09 01:30N 49°07' W 123°11'0 0.0
2017-Oct-09 01:00N 49°07' W 123°11'0 0.0
2017-Oct-09 00:30N 49°07' W 123°11'0 0.0
2017-Oct-09 00:01N 49°07' W 123°11'0 0.0
2017-Oct-08 23:27N 49°07' W 123°11'0 0.0
2017-Oct-08 23:01N 49°07' W 123°11'0 0.0
2017-Oct-08 22:30N 49°07' W 123°11'0 0.0
2017-Oct-08 22:00N 49°07' W 123°11'0 0.0
2017-Oct-08 21:30N 49°07' W 123°11'0 0.0
2017-Oct-08 21:00N 49°07' W 123°11'0 0.0
2017-Oct-08 20:25N 49°07' W 123°11'0 0.0
2017-Oct-08 20:01N 49°07' W 123°11'713.8
2017-Oct-08 19:30N 49°03' W 123°20'713.2
2017-Oct-08 18:59N 49°07' W 123°11'0 0.1
2017-Oct-08 18:28N 49°07' W 123°11'0 0.0
2017-Oct-08 18:00N 49°07' W 123°11'0 0.0
2017-Oct-08 17:30N 49°07' W 123°11'0 0.0
2017-Oct-08 17:00N 49°07' W 123°11'0 0.0
2017-Oct-08 16:30N 49°07' W 123°11'0 0.1
2017-Oct-08 16:00N 49°07' W 123°11'0 0.1
2017-Oct-08 15:30N 49°07' W 123°11'0 0.0
2017-Oct-08 15:00N 49°07' W 123°11'0 0.0
2017-Oct-08 14:30N 49°07' W 123°11'0 0.0
2017-Oct-08 14:00N 49°07' W 123°11'0 0.0
2017-Oct-08 13:30N 49°07' W 123°11'0 0.0
2017-Oct-08 13:00N 49°07' W 123°11'0 0.0
2017-Oct-08 12:30N 49°07' W 123°11'0 0.0
2017-Oct-08 12:00N 49°07' W 123°11'0 0.0
2017-Oct-08 11:30N 49°07' W 123°11'0 0.0
2017-Oct-08 11:00N 49°07' W 123°11'0 0.0
2017-Oct-08 10:30N 49°07' W 123°11'0 0.0
2017-Oct-08 10:00N 49°07' W 123°11'0 0.0
2017-Oct-08 09:28N 49°07' W 123°11'0 0.0
2017-Oct-08 08:52N 49°07' W 123°11'0 0.0
2017-Oct-08 08:30N 49°07' W 123°11'0 0.0
2017-Oct-08 08:00N 49°07' W 123°11'0 0.0
2017-Oct-08 07:30N 49°07' W 123°11'0 0.0
2017-Oct-08 07:00N 49°07' W 123°11'0 0.0
2017-Oct-08 06:30N 49°07' W 123°11'0 0.0
2017-Oct-08 06:00N 49°07' W 123°11'0 0.0
2017-Oct-08 05:30N 49°07' W 123°11'0 0.0
2017-Oct-08 05:00N 49°07' W 123°11'0 0.0
2017-Oct-08 04:29N 49°07' W 123°11'0 0.0
2017-Oct-08 04:00N 49°07' W 123°11'0 0.0
2017-Oct-08 03:30N 49°07' W 123°11'0 0.0
2017-Oct-08 03:00N 49°07' W 123°11'4 8.3
2017-Oct-08 02:30N 49°07' W 123°17'4 7.9
2017-Oct-08 02:00N 49°07' W 123°11'0 0.0
2017-Oct-08 01:30N 49°07' W 123°11'0 0.1
2017-Oct-08 01:00N 49°07' W 123°11'0 0.1
2017-Oct-08 00:30N 49°07' W 123°11'0 0.0
2017-Oct-08 00:00N 49°07' W 123°11'0 0.0
2017-Oct-07 23:30N 49°07' W 123°11'0 0.1
2017-Oct-07 23:00N 49°07' W 123°11'0 0.1
2017-Oct-07 22:30N 49°07' W 123°11'1 1.2
2017-Oct-07 22:00N 49°07' W 123°12'3 4.9
2017-Oct-07 21:30N 49°07' W 123°16'3 6.3
2017-Oct-07 21:00N 49°07' W 123°11'0 0.0
2017-Oct-07 20:29N 49°07' W 123°11'0 0.0
2017-Oct-07 20:00N 49°07' W 123°11'0 0.0
2017-Oct-07 19:29N 49°07' W 123°11'0 0.0
2017-Oct-07 19:00N 49°07' W 123°11'0 0.0
2017-Oct-07 18:28N 49°07' W 123°11'0 0.0
2017-Oct-07 18:00N 49°07' W 123°11'  

Dump ship's entire track history